createdAt,value
2017-10-10T00:00:09.675Z,61.90
2017-10-10T00:02:37.172Z,61.20
2017-10-10T00:05:04.786Z,61.10
2017-10-10T00:07:33.075Z,61.20
2017-10-10T00:10:00.588Z,61.10
2017-10-10T00:12:28.874Z,61.10
2017-10-10T00:14:56.541Z,61.10
2017-10-10T00:17:24.066Z,61.10
2017-10-10T00:19:51.577Z,61.10
2017-10-10T00:22:19.107Z,61.80
2017-10-10T00:24:47.370Z,61.20
2017-10-10T00:27:14.884Z,61.10
2017-10-10T00:29:42.384Z,61.90
2017-10-10T00:32:09.900Z,61.00
2017-10-10T00:34:37.412Z,61.10
2017-10-10T00:37:05.697Z,61.10
2017-10-10T00:39:34.022Z,61.10
2017-10-10T00:42:01.539Z,61.10
2017-10-10T00:44:29.134Z,61.20
2017-10-10T00:46:56.650Z,61.10
2017-10-10T00:49:24.906Z,61.20
2017-10-10T00:51:52.423Z,61.10
2017-10-10T00:54:19.919Z,61.20
2017-10-10T00:56:47.443Z,61.20
2017-10-10T00:59:14.940Z,61.30
2017-10-10T01:01:42.462Z,61.40
2017-10-10T01:04:09.962Z,61.40
2017-10-10T01:06:38.270Z,61.40
2017-10-10T01:09:05.771Z,61.40
2017-10-10T01:11:33.275Z,61.40
2017-10-10T01:14:01.563Z,61.40
2017-10-10T01:16:29.063Z,61.30
2017-10-10T01:18:56.579Z,61.30
2017-10-10T01:21:24.108Z,61.40
2017-10-10T01:23:51.707Z,61.40
2017-10-10T01:26:19.202Z,61.40
2017-10-10T01:28:46.714Z,61.30
2017-10-10T01:31:14.237Z,61.30
2017-10-10T01:33:41.746Z,61.30
2017-10-10T01:36:09.264Z,61.20
2017-10-10T01:38:36.773Z,61.20
2017-10-10T01:41:04.349Z,61.20
2017-10-10T01:43:31.848Z,61.50
2017-10-10T01:45:59.363Z,61.10
2017-10-10T01:48:26.863Z,61.00
2017-10-10T01:50:55.170Z,61.00
2017-10-10T01:53:22.679Z,61.00
2017-10-10T01:55:50.198Z,61.00
2017-10-10T01:58:17.700Z,60.90
2017-10-10T02:00:45.251Z,60.90
2017-10-10T02:03:12.751Z,60.80
2017-10-10T02:05:41.053Z,60.70
2017-10-10T02:08:08.551Z,60.60
2017-10-10T02:10:36.063Z,60.70
2017-10-10T02:13:03.568Z,60.70
2017-10-10T02:15:31.084Z,60.70
2017-10-10T02:17:58.642Z,60.80
2017-10-10T02:20:26.156Z,60.80
2017-10-10T02:22:53.658Z,60.80
2017-10-10T02:25:21.231Z,60.90
2017-10-10T02:27:48.777Z,61.00
2017-10-10T02:30:17.118Z,61.20
2017-10-10T02:32:44.645Z,61.10
2017-10-10T02:35:12.170Z,61.20
2017-10-10T02:37:39.687Z,61.40
2017-10-10T02:40:07.186Z,61.40
2017-10-10T02:42:34.717Z,61.60
2017-10-10T02:45:03.007Z,61.70
2017-10-10T02:47:31.519Z,62.40
2017-10-10T02:49:59.027Z,61.60
2017-10-10T02:52:26.634Z,61.70
2017-10-10T02:54:54.974Z,61.70
2017-10-10T02:57:22.491Z,61.60
2017-10-10T02:59:49.983Z,61.70
2017-10-10T03:02:17.507Z,61.60
2017-10-10T03:04:45.003Z,61.70
2017-10-10T03:07:12.524Z,61.70
2017-10-10T03:09:40.018Z,61.70
2017-10-10T03:12:07.594Z,61.70
2017-10-10T03:14:35.884Z,61.60
2017-10-10T03:17:04.165Z,61.70
2017-10-10T03:19:32.458Z,61.70
2017-10-10T03:22:00.008Z,61.70
2017-10-10T03:24:27.510Z,61.70
2017-10-10T03:26:55.045Z,61.80
2017-10-10T03:29:22.547Z,61.90
2017-10-10T03:31:50.050Z,61.90
2017-10-10T03:34:17.567Z,61.70
2017-10-10T03:36:45.062Z,61.80
2017-10-10T03:39:12.607Z,61.70
2017-10-10T03:41:40.870Z,61.80
2017-10-10T03:44:08.391Z,61.70
2017-10-10T03:46:35.900Z,61.80
2017-10-10T03:49:04.187Z,61.80
2017-10-10T03:51:34.138Z,61.70
2017-10-10T03:54:01.651Z,61.80
2017-10-10T03:56:29.932Z,61.90
2017-10-10T03:58:58.212Z,61.80
2017-10-10T04:01:25.715Z,61.80
2017-10-10T04:03:54.055Z,61.70
2017-10-10T04:06:21.565Z,61.70
2017-10-10T04:08:49.082Z,61.70
2017-10-10T04:11:16.600Z,62.00
2017-10-10T04:13:44.111Z,61.70
2017-10-10T04:16:11.607Z,61.70
2017-10-10T04:18:39.915Z,62.40
2017-10-10T04:21:08.175Z,61.70
2017-10-10T04:23:35.692Z,61.60
2017-10-10T04:26:03.202Z,61.70
2017-10-10T04:28:31.515Z,61.80
2017-10-10T04:30:59.014Z,61.80
2017-10-10T04:33:26.515Z,61.70
2017-10-10T04:35:54.050Z,61.70
2017-10-10T04:38:21.551Z,61.70
2017-10-10T04:40:49.683Z,61.70
2017-10-10T04:43:17.188Z,61.70
2017-10-10T04:45:44.708Z,61.70
2017-10-10T04:48:12.972Z,61.80
2017-10-10T04:50:40.490Z,61.70
2017-10-10T04:53:07.991Z,61.70
2017-10-10T04:55:35.511Z,61.70
2017-10-10T04:58:03.008Z,61.70
2017-10-10T05:00:30.557Z,61.80
2017-10-10T05:02:58.054Z,61.90
2017-10-10T05:05:25.562Z,61.90
2017-10-10T05:07:53.062Z,61.90
2017-10-10T05:10:21.340Z,62.10
2017-10-10T05:12:49.638Z,62.10
2017-10-10T05:15:17.157Z,62.10
2017-10-10T05:17:44.659Z,62.10
2017-10-10T05:20:12.181Z,62.10
2017-10-10T05:22:39.675Z,62.10
2017-10-10T05:25:07.224Z,61.60
2017-10-10T05:27:34.723Z,62.30
2017-10-10T05:30:02.242Z,62.30
2017-10-10T05:32:29.742Z,62.40
2017-10-10T05:34:57.246Z,62.40
2017-10-10T05:37:24.759Z,62.40
2017-10-10T05:39:52.254Z,62.50
2017-10-10T05:42:19.776Z,62.50
2017-10-10T05:44:47.351Z,62.50
2017-10-10T05:47:14.858Z,62.50
2017-10-10T05:49:42.359Z,62.50
2017-10-10T05:52:09.884Z,62.50
2017-10-10T05:54:37.388Z,62.40
2017-10-10T05:57:04.903Z,62.50
2017-10-10T05:59:32.394Z,62.50
2017-10-10T06:01:59.915Z,62.50
2017-10-10T06:04:27.428Z,62.50
2017-10-10T06:06:54.948Z,62.60
2017-10-10T06:09:23.312Z,62.60
2017-10-10T06:11:50.832Z,62.60
2017-10-10T06:14:19.616Z,62.60
2017-10-10T06:16:47.168Z,62.60
2017-10-10T06:19:14.670Z,62.50
2017-10-10T06:21:42.187Z,62.50
2017-10-10T06:24:09.692Z,62.50
2017-10-10T06:26:37.214Z,62.60
2017-10-10T06:29:04.721Z,62.50
2017-10-10T06:31:32.250Z,62.50
2017-10-10T06:33:59.770Z,63.30
2017-10-10T06:36:27.275Z,62.40
2017-10-10T06:38:55.571Z,62.70
2017-10-10T06:41:23.204Z,62.60
2017-10-10T06:43:51.499Z,62.60
2017-10-10T06:46:19.006Z,62.60
2017-10-10T06:48:46.525Z,62.60
2017-10-10T06:51:14.026Z,62.70
2017-10-10T06:53:41.555Z,62.70
2017-10-10T06:56:09.055Z,62.70
2017-10-10T06:58:36.589Z,62.80
2017-10-10T07:01:04.100Z,63.00
2017-10-10T07:03:31.766Z,63.00
2017-10-10T07:06:00.071Z,63.00
2017-10-10T07:08:27.628Z,62.90
2017-10-10T07:10:55.896Z,63.10
2017-10-10T07:13:23.423Z,62.90
2017-10-10T07:15:50.926Z,63.00
2017-10-10T07:18:18.451Z,63.00
2017-10-10T07:20:46.734Z,62.90
2017-10-10T07:23:15.025Z,62.80
2017-10-10T07:25:42.546Z,62.60
2017-10-10T07:28:10.062Z,62.50
2017-10-10T07:30:38.332Z,61.60
2017-10-10T07:33:07.786Z,61.50
2017-10-10T07:35:35.291Z,61.30
2017-10-10T07:38:02.813Z,61.50
2017-10-10T07:40:30.327Z,61.40
2017-10-10T07:42:57.832Z,62.00
2017-10-10T07:45:26.127Z,60.70
2017-10-10T07:47:54.394Z,60.50
2017-10-10T07:50:22.672Z,60.30
2017-10-10T07:52:50.944Z,59.60
2017-10-10T07:55:19.239Z,59.30
2017-10-10T07:57:46.760Z,59.30
2017-10-10T08:00:14.288Z,59.40
2017-10-10T08:02:41.832Z,57.70
2017-10-10T08:05:09.343Z,57.90
2017-10-10T08:07:36.854Z,58.30
2017-10-10T08:10:04.372Z,58.60
2017-10-10T08:12:32.662Z,58.70
2017-10-10T08:15:00.947Z,58.20
2017-10-10T08:17:28.451Z,58.20
2017-10-10T08:19:55.980Z,58.00
2017-10-10T08:22:23.482Z,57.50
2017-10-10T08:24:51.010Z,57.20
2017-10-10T08:27:18.535Z,57.10
2017-10-10T08:29:46.823Z,56.50
2017-10-10T08:32:14.367Z,56.50
2017-10-10T08:34:42.655Z,56.40
2017-10-10T08:37:10.163Z,56.40
2017-10-10T08:39:37.687Z,56.70
2017-10-10T08:42:05.192Z,55.90
2017-10-10T08:44:32.739Z,55.70
2017-10-10T08:47:00.255Z,55.40
2017-10-10T08:49:29.587Z,54.90
2017-10-10T08:51:57.108Z,55.00
2017-10-10T08:54:25.471Z,55.20
2017-10-10T08:56:53.752Z,55.10
2017-10-10T08:59:21.256Z,55.00
2017-10-10T09:01:48.782Z,53.80
2017-10-10T09:04:16.293Z,54.30
2017-10-10T09:06:43.817Z,54.70
2017-10-10T09:09:11.324Z,54.50
2017-10-10T09:11:38.845Z,53.80
2017-10-10T09:14:06.347Z,54.00
2017-10-10T09:16:33.868Z,53.20
2017-10-10T09:19:01.376Z,53.60
2017-10-10T09:21:29.668Z,53.00
2017-10-10T09:23:57.944Z,52.60
2017-10-10T09:26:26.222Z,52.10
2017-10-10T09:28:54.456Z,52.10
2017-10-10T09:31:21.971Z,51.40
2017-10-10T09:33:49.502Z,51.40
2017-10-10T09:36:17.027Z,51.30
2017-10-10T09:38:44.536Z,50.20
2017-10-10T09:41:12.055Z,50.60
2017-10-10T09:43:39.560Z,49.80
2017-10-10T09:46:07.108Z,50.30
2017-10-10T09:48:35.376Z,50.30
2017-10-10T09:51:03.664Z,49.90
2017-10-10T09:53:31.208Z,49.80
2017-10-10T09:55:58.760Z,49.40
2017-10-10T09:58:26.276Z,49.60
2017-10-10T10:00:53.775Z,49.70
2017-10-10T10:03:21.291Z,49.70
2017-10-10T10:05:48.801Z,49.90
2017-10-10T10:08:16.340Z,49.70
2017-10-10T10:10:43.860Z,49.60
2017-10-10T10:13:11.436Z,49.70
2017-10-10T10:15:38.978Z,50.20
2017-10-10T10:18:06.525Z,49.80
2017-10-10T10:20:34.804Z,49.40
2017-10-10T10:23:02.451Z,49.40
2017-10-10T10:25:29.975Z,50.10
2017-10-10T10:27:58.312Z,50.40
2017-10-10T10:30:25.816Z,50.20
2017-10-10T10:32:53.367Z,50.30
2017-10-10T10:35:20.892Z,49.80
2017-10-10T10:37:48.415Z,50.30
2017-10-10T10:40:16.843Z,50.50
2017-10-10T10:42:44.376Z,50.80
2017-10-10T10:45:12.652Z,50.30
2017-10-10T10:47:40.181Z,50.40
2017-10-10T10:50:07.689Z,50.70
2017-10-10T10:52:35.249Z,51.00
2017-10-10T10:55:02.792Z,50.70
2017-10-10T10:57:30.320Z,50.40
2017-10-10T10:59:57.852Z,50.00
2017-10-10T11:02:25.367Z,50.30
2017-10-10T11:04:53.652Z,48.80
2017-10-10T11:07:21.167Z,48.60
2017-10-10T11:09:48.707Z,49.20
2017-10-10T11:12:16.214Z,49.70
2017-10-10T11:14:44.499Z,50.00
2017-10-10T11:17:12.768Z,49.20
2017-10-10T11:19:41.061Z,49.10
2017-10-10T11:22:08.564Z,49.10
2017-10-10T11:24:36.103Z,48.20
2017-10-10T11:27:03.616Z,47.70
2017-10-10T11:29:31.919Z,48.10
2017-10-10T11:31:59.426Z,48.10
2017-10-10T11:34:26.956Z,48.20
2017-10-10T11:36:54.460Z,48.60
2017-10-10T11:39:22.023Z,48.50
2017-10-10T11:41:49.531Z,49.00
2017-10-10T11:44:17.055Z,48.50
2017-10-10T11:46:45.323Z,48.00
2017-10-10T11:49:12.864Z,48.50
2017-10-10T11:51:40.383Z,47.30
2017-10-10T11:54:07.891Z,47.50
2017-10-10T11:56:35.416Z,47.60
2017-10-10T11:59:02.927Z,47.90
2017-10-10T12:01:30.447Z,48.20
2017-10-10T12:03:57.955Z,48.20
2017-10-10T12:06:25.477Z,48.70
2017-10-10T12:08:52.981Z,48.20
2017-10-10T12:11:20.780Z,48.20
2017-10-10T12:13:48.291Z,48.00
2017-10-10T12:16:16.579Z,48.70
2017-10-10T12:18:44.084Z,48.70
2017-10-10T12:21:11.628Z,48.00
2017-10-10T12:23:39.136Z,47.40
2017-10-10T12:26:06.683Z,47.80
2017-10-10T12:28:34.188Z,47.40
2017-10-10T12:31:01.724Z,47.50
2017-10-10T12:33:29.260Z,47.80
2017-10-10T12:35:56.811Z,47.80
2017-10-10T12:38:24.322Z,47.60
2017-10-10T12:40:51.856Z,47.10
2017-10-10T12:43:20.124Z,48.10
2017-10-10T12:45:48.411Z,48.20
2017-10-10T12:48:16.675Z,47.60
2017-10-10T12:50:44.221Z,47.50
2017-10-10T12:53:11.751Z,48.00
2017-10-10T12:55:39.254Z,47.20
2017-10-10T12:58:07.535Z,47.30
2017-10-10T13:00:35.853Z,47.30
2017-10-10T13:03:03.371Z,47.20
2017-10-10T13:05:31.644Z,47.50
2017-10-10T13:07:59.951Z,46.70
2017-10-10T13:10:27.452Z,46.50
2017-10-10T13:12:54.993Z,46.10
2017-10-10T13:15:22.522Z,46.60
2017-10-10T13:17:50.045Z,46.50
2017-10-10T13:20:17.547Z,47.00
2017-10-10T13:22:45.072Z,47.10
2017-10-10T13:25:12.599Z,46.90
2017-10-10T13:27:40.115Z,47.00
2017-10-10T13:30:08.401Z,48.30
2017-10-10T13:32:35.942Z,48.30
2017-10-10T13:35:04.203Z,49.40
2017-10-10T13:37:32.448Z,49.30
2017-10-10T13:39:59.969Z,48.70
2017-10-10T13:42:27.503Z,49.30
2017-10-10T13:44:55.815Z,48.30
2017-10-10T13:47:23.335Z,48.30
2017-10-10T13:49:50.876Z,48.30
2017-10-10T13:52:18.401Z,48.20
2017-10-10T13:54:45.912Z,48.50
2017-10-10T13:57:13.430Z,48.40
2017-10-10T13:59:40.957Z,48.30
2017-10-10T14:02:08.473Z,49.10
2017-10-10T14:04:36.010Z,48.50
2017-10-10T14:07:03.536Z,48.70
2017-10-10T14:09:31.059Z,48.80
2017-10-10T14:11:58.598Z,48.80
2017-10-10T14:14:26.115Z,49.00
2017-10-10T14:16:53.619Z,48.30
2017-10-10T14:19:21.149Z,48.80
2017-10-10T14:21:48.660Z,49.00
2017-10-10T14:24:16.967Z,49.10
2017-10-10T14:26:44.472Z,49.00
2017-10-10T14:29:12.007Z,49.10
2017-10-10T14:31:39.507Z,49.30
2017-10-10T14:34:07.027Z,49.30
2017-10-10T14:36:34.575Z,49.10
2017-10-10T14:39:02.131Z,49.00
2017-10-10T14:41:29.639Z,49.00
2017-10-10T14:43:57.173Z,48.90
2017-10-10T14:46:24.723Z,49.20
2017-10-10T14:48:52.250Z,48.80
2017-10-10T14:51:20.524Z,49.30
2017-10-10T14:53:48.819Z,49.20
2017-10-10T14:56:16.360Z,49.10
2017-10-10T14:58:44.686Z,49.50
2017-10-10T15:01:12.215Z,49.50
2017-10-10T15:03:39.725Z,49.90
2017-10-10T15:06:07.269Z,49.70
2017-10-10T15:08:34.787Z,49.80
2017-10-10T15:11:02.303Z,50.20
2017-10-10T15:13:29.812Z,49.80
2017-10-10T15:15:57.332Z,50.00
2017-10-10T15:18:24.843Z,50.80
2017-10-10T15:20:52.368Z,51.20
2017-10-10T15:23:20.633Z,52.00
2017-10-10T15:25:48.174Z,51.90
2017-10-10T15:28:15.678Z,52.10
2017-10-10T15:30:43.195Z,52.40
2017-10-10T15:33:10.708Z,53.10
2017-10-10T15:35:38.228Z,53.20
2017-10-10T15:38:06.456Z,53.40
2017-10-10T15:40:33.975Z,54.20
2017-10-10T15:43:02.254Z,54.10
2017-10-10T15:45:30.542Z,54.30
2017-10-10T15:47:58.067Z,54.20
2017-10-10T15:50:25.587Z,54.30
2017-10-10T15:52:53.087Z,54.50
2017-10-10T15:55:20.636Z,54.40
2017-10-10T15:57:48.136Z,54.20
2017-10-10T16:00:16.399Z,54.50
2017-10-10T16:02:44.683Z,54.60
2017-10-10T16:05:12.944Z,54.80
2017-10-10T16:07:40.458Z,54.60
2017-10-10T16:10:07.954Z,54.70
2017-10-10T16:12:35.471Z,54.90
2017-10-10T16:15:02.966Z,54.80
2017-10-10T16:17:30.487Z,55.10
2017-10-10T16:19:57.991Z,55.20
2017-10-10T16:22:25.505Z,55.40
2017-10-10T16:24:53.007Z,55.60
2017-10-10T16:27:20.528Z,55.80
2017-10-10T16:29:48.028Z,55.80
2017-10-10T16:32:15.549Z,56.00
2017-10-10T16:34:43.051Z,56.30
2017-10-10T16:37:11.336Z,56.30
2017-10-10T16:39:39.602Z,56.30
2017-10-10T16:42:07.121Z,56.30
2017-10-10T16:44:34.624Z,56.20
2017-10-10T16:47:02.914Z,57.00
2017-10-10T16:49:31.183Z,56.60
2017-10-10T16:51:59.471Z,56.70
2017-10-10T16:54:27.739Z,56.70
2017-10-10T16:56:56.018Z,56.70
2017-10-10T16:59:24.281Z,56.60
2017-10-10T17:01:51.970Z,56.60
2017-10-10T17:04:20.239Z,56.90
2017-10-10T17:06:48.512Z,57.10
2017-10-10T17:09:16.847Z,57.30
2017-10-10T17:11:44.342Z,57.30
2017-10-10T17:14:12.635Z,57.20
2017-10-10T17:16:40.903Z,57.20
2017-10-10T17:19:09.238Z,57.20
2017-10-10T17:21:36.743Z,57.10
2017-10-10T17:24:05.026Z,57.20
2017-10-10T17:26:33.298Z,57.30
2017-10-10T17:29:01.583Z,57.30
2017-10-10T17:31:29.102Z,57.30
2017-10-10T17:33:56.627Z,57.40
2017-10-10T17:36:24.138Z,57.80
2017-10-10T17:38:52.427Z,59.00
2017-10-10T17:41:19.998Z,58.40
2017-10-10T17:43:47.536Z,58.20
2017-10-10T17:46:15.831Z,58.20
2017-10-10T17:48:44.118Z,58.50
2017-10-10T17:51:11.627Z,58.40
2017-10-10T17:53:39.167Z,58.50
2017-10-10T17:56:06.683Z,58.60
2017-10-10T17:58:34.227Z,58.70
2017-10-10T18:01:02.511Z,58.90
2017-10-10T18:03:30.807Z,59.00
2017-10-10T18:05:58.323Z,58.90
2017-10-10T18:08:25.875Z,59.10
2017-10-10T18:10:53.387Z,59.10
2017-10-10T18:13:20.904Z,59.00
2017-10-10T18:15:48.423Z,59.10
2017-10-10T18:18:15.928Z,59.20
2017-10-10T18:20:43.447Z,59.30
2017-10-10T18:23:11.004Z,59.30
2017-10-10T18:25:38.515Z,60.10
2017-10-10T18:28:06.080Z,59.50
2017-10-10T18:30:34.377Z,59.80
2017-10-10T18:33:01.917Z,59.70
2017-10-10T18:35:30.206Z,59.70
2017-10-10T18:37:58.483Z,59.80
2017-10-10T18:40:26.775Z,59.90
2017-10-10T18:42:54.298Z,59.90
2017-10-10T18:45:21.823Z,60.00
2017-10-10T18:47:49.331Z,60.00
2017-10-10T18:50:17.616Z,60.30
2017-10-10T18:52:45.129Z,60.20
2017-10-10T18:55:12.652Z,60.40
2017-10-10T18:57:40.196Z,60.40
2017-10-10T19:00:07.715Z,60.40
2017-10-10T19:02:35.223Z,60.50
2017-10-10T19:05:02.747Z,60.50
2017-10-10T19:07:30.247Z,60.50
2017-10-10T19:09:57.779Z,60.50
2017-10-10T19:12:26.106Z,60.40
2017-10-10T19:14:53.619Z,60.30
2017-10-10T19:17:21.954Z,60.70
2017-10-10T19:19:49.462Z,60.60
2017-10-10T19:22:16.979Z,60.80
2017-10-10T19:24:44.547Z,60.60
2017-10-10T19:27:12.076Z,60.60
2017-10-10T19:29:39.576Z,60.60
2017-10-10T19:32:07.095Z,60.60
2017-10-10T19:34:34.595Z,60.30
2017-10-10T19:37:02.182Z,60.70
2017-10-10T19:39:29.707Z,60.80
2017-10-10T19:41:57.270Z,61.50
2017-10-10T19:44:24.821Z,60.70
2017-10-10T19:46:52.386Z,60.80
2017-10-10T19:49:19.951Z,60.80
2017-10-10T19:51:48.312Z,60.90
2017-10-10T19:54:15.806Z,60.80
2017-10-10T19:56:43.370Z,60.90
2017-10-10T19:59:10.930Z,60.90
2017-10-10T20:01:39.202Z,61.00
2017-10-10T20:04:06.703Z,61.00
2017-10-10T20:06:34.214Z,61.00
2017-10-10T20:09:01.719Z,60.90
2017-10-10T20:11:29.263Z,60.90
2017-10-10T20:13:56.813Z,60.80
2017-10-10T20:16:24.379Z,60.90
2017-10-10T20:18:51.947Z,60.90
2017-10-10T20:21:19.445Z,60.90
2017-10-10T20:23:47.128Z,61.00
2017-10-10T20:26:14.674Z,60.90
2017-10-10T20:28:42.207Z,61.00
2017-10-10T20:31:10.563Z,61.00
2017-10-10T20:33:38.083Z,61.00
2017-10-10T20:36:05.594Z,61.10
2017-10-10T20:38:33.111Z,61.60
2017-10-10T20:41:01.436Z,61.00
2017-10-10T20:43:28.955Z,61.00
2017-10-10T20:45:57.242Z,61.10
2017-10-10T20:48:24.763Z,61.00
2017-10-10T20:50:52.269Z,61.00
2017-10-10T20:53:19.784Z,61.10
2017-10-10T20:55:47.281Z,61.10
2017-10-10T20:58:14.795Z,61.00
2017-10-10T21:00:42.298Z,61.10
2017-10-10T21:03:09.826Z,61.20
2017-10-10T21:05:37.318Z,61.30
2017-10-10T21:08:04.839Z,61.40
2017-10-10T21:10:32.334Z,61.40
2017-10-10T21:12:59.878Z,61.60
2017-10-10T21:15:28.143Z,61.70
2017-10-10T21:17:56.411Z,61.80
2017-10-10T21:20:23.923Z,61.70
2017-10-10T21:22:51.427Z,61.80
2017-10-10T21:25:19.070Z,61.90
2017-10-10T21:27:46.574Z,61.90
2017-10-10T21:30:14.850Z,62.10
2017-10-10T21:32:42.356Z,62.00
2017-10-10T21:35:09.875Z,62.10
2017-10-10T21:37:37.372Z,62.10
2017-10-10T21:40:04.895Z,62.10
2017-10-10T21:42:32.396Z,62.10
2017-10-10T21:44:59.915Z,62.10
2017-10-10T21:47:27.422Z,62.00
2017-10-10T21:49:54.963Z,62.10
2017-10-10T21:52:22.454Z,62.20
2017-10-10T21:54:49.999Z,62.10
2017-10-10T21:57:18.299Z,62.10
2017-10-10T21:59:46.451Z,62.00
2017-10-10T22:02:13.980Z,61.70
2017-10-10T22:04:41.495Z,61.60
2017-10-10T22:07:11.273Z,61.60
2017-10-10T22:09:45.271Z,61.40
2017-10-10T22:12:13.758Z,61.40
2017-10-10T22:14:43.349Z,61.40
2017-10-10T22:17:11.848Z,61.20
2017-10-10T22:19:41.843Z,61.90
2017-10-10T22:22:12.609Z,61.00
2017-10-10T22:24:40.750Z,61.10
2017-10-10T22:27:09.658Z,61.30
2017-10-10T22:29:41.351Z,61.20
2017-10-10T22:32:10.187Z,61.20
2017-10-10T22:34:37.740Z,61.20
2017-10-10T22:37:05.276Z,61.20
2017-10-10T22:39:33.553Z,61.30
2017-10-10T22:42:01.839Z,61.40
2017-10-10T22:44:30.115Z,61.20
2017-10-10T22:46:58.400Z,61.10
2017-10-10T22:49:25.919Z,61.00
2017-10-10T22:51:53.433Z,61.00
2017-10-10T22:54:20.934Z,60.90
2017-10-10T22:56:48.455Z,61.00
2017-10-10T22:59:15.958Z,61.00
2017-10-10T23:01:43.475Z,60.90
2017-10-10T23:04:11.080Z,61.00
2017-10-10T23:06:38.600Z,60.90
2017-10-10T23:09:06.138Z,60.90
2017-10-10T23:11:33.655Z,61.00
2017-10-10T23:14:01.173Z,61.00
2017-10-10T23:16:28.687Z,61.00
2017-10-10T23:18:56.187Z,61.00
2017-10-10T23:21:23.683Z,61.20
2017-10-10T23:23:51.248Z,61.20
2017-10-10T23:26:18.802Z,61.20
2017-10-10T23:28:46.318Z,61.20
2017-10-10T23:31:13.827Z,61.10
2017-10-10T23:33:41.362Z,61.00
2017-10-10T23:36:08.857Z,61.20
2017-10-10T23:38:36.375Z,61.20
2017-10-10T23:41:03.880Z,61.10
2017-10-10T23:43:31.407Z,61.20
2017-10-10T23:45:58.907Z,61.10
2017-10-10T23:48:27.182Z,60.80
2017-10-10T23:50:55.475Z,60.90
2017-10-10T23:53:22.987Z,60.90
2017-10-10T23:55:50.488Z,61.10
2017-10-10T23:58:18.776Z,60.90
